createdAt,value
2019-03-12T00:01:07.932Z,102307.13
2019-03-12T00:03:37.466Z,102301.83
2019-03-12T00:06:07.020Z,102289.69
2019-03-12T00:08:36.584Z,102288.35
2019-03-12T00:11:06.148Z,102284.80
2019-03-12T00:13:35.672Z,102273.66
2019-03-12T00:16:05.326Z,102271.38
2019-03-12T00:18:34.883Z,102267.83
2019-03-12T00:21:04.442Z,102266.48
2019-03-12T00:23:33.976Z,102266.95
2019-03-12T00:26:03.521Z,102263.41
2019-03-12T00:28:33.070Z,102268.30
2019-03-12T00:31:02.948Z,102263.41
2019-03-12T00:33:32.509Z,102260.72
2019-03-12T00:36:02.070Z,102260.72
2019-03-12T00:38:31.600Z,102251.33
2019-03-12T00:41:01.170Z,102245.53
2019-03-12T00:43:30.722Z,102245.06
2019-03-12T00:46:00.269Z,102237.48
2019-03-12T00:48:29.830Z,102245.12
2019-03-12T00:50:59.401Z,102240.63
2019-03-12T00:53:28.952Z,102235.73
2019-03-12T00:55:58.499Z,102232.12
2019-03-12T00:58:28.060Z,102233.52
2019-03-12T01:00:57.620Z,102226.82
2019-03-12T01:03:28.494Z,102226.82
2019-03-12T01:05:58.041Z,102216.09
2019-03-12T01:08:27.630Z,102209.82
2019-03-12T01:10:57.159Z,102206.27
2019-03-12T01:13:26.708Z,102202.67
2019-03-12T01:15:56.268Z,102189.30
2019-03-12T01:18:25.829Z,102191.52
2019-03-12T01:20:55.384Z,102185.67
2019-03-12T01:23:24.960Z,102178.56
2019-03-12T01:25:54.525Z,102175.89
2019-03-12T01:28:24.069Z,102170.13
2019-03-12T01:30:53.632Z,102169.18
2019-03-12T01:33:23.551Z,102160.73
2019-03-12T01:35:53.083Z,102163.41
2019-03-12T01:38:22.640Z,102156.27
2019-03-12T01:40:52.542Z,102148.70
2019-03-12T01:43:22.328Z,102151.84
2019-03-12T01:45:52.132Z,102145.08
2019-03-12T01:48:21.651Z,102146.02
2019-03-12T01:50:51.492Z,102143.80
2019-03-12T01:53:21.327Z,102136.20
2019-03-12T01:55:50.841Z,102137.53
2019-03-12T01:58:20.371Z,102127.28
2019-03-12T02:00:49.898Z,102123.25
2019-03-12T02:03:19.449Z,102133.11
2019-03-12T02:05:48.962Z,102124.59
2019-03-12T02:08:18.677Z,102129.48
2019-03-12T02:10:48.223Z,102116.55
2019-03-12T02:13:17.735Z,102099.62
2019-03-12T02:15:47.282Z,102099.98
2019-03-12T02:18:16.822Z,102096.03
2019-03-12T02:21:05.043Z,102091.17
2019-03-12T02:23:52.859Z,102091.58
2019-03-12T02:26:22.395Z,102081.31
2019-03-12T02:28:51.933Z,102085.34
2019-03-12T02:31:21.466Z,102075.55
2019-03-12T02:33:51.338Z,102070.19
2019-03-12T02:36:21.174Z,102065.30
2019-03-12T02:38:50.703Z,102062.18
2019-03-12T02:41:20.226Z,102051.89
2019-03-12T02:43:50.079Z,102037.17
2019-03-12T02:46:19.613Z,102043.41
2019-03-12T02:48:49.171Z,102025.58
2019-03-12T02:51:19.244Z,102022.42
2019-03-12T02:53:48.767Z,102020.21
2019-03-12T02:56:18.289Z,102020.21
2019-03-12T02:58:48.160Z,102014.38
2019-03-12T03:01:17.706Z,102005.46
2019-03-12T03:04:05.489Z,101993.43
2019-03-12T03:07:12.022Z,101995.64
2019-03-12T03:09:41.560Z,101984.52
2019-03-12T03:12:11.093Z,101983.65
2019-03-12T03:14:41.385Z,101976.08
2019-03-12T03:17:14.491Z,101972.45
2019-03-12T03:19:44.100Z,101966.22
2019-03-12T03:22:13.615Z,101958.21
2019-03-12T03:24:43.430Z,101949.70
2019-03-12T03:27:13.332Z,101952.37
2019-03-12T03:29:42.860Z,101946.10
2019-03-12T03:32:12.802Z,101949.25
2019-03-12T03:34:42.524Z,101945.23
2019-03-12T03:37:12.073Z,101941.10
2019-03-12T03:39:41.778Z,101929.43
2019-03-12T03:42:11.470Z,101922.61
2019-03-12T03:44:41.007Z,101932.91
2019-03-12T03:47:10.804Z,101916.34
2019-03-12T03:49:40.367Z,101919.38
2019-03-12T03:52:09.906Z,101905.97
2019-03-12T03:54:39.438Z,101901.43
2019-03-12T03:57:09.672Z,101899.98
2019-03-12T03:59:39.306Z,101897.77
2019-03-12T04:02:08.874Z,101891.89
2019-03-12T04:04:38.406Z,101881.52
2019-03-12T04:07:07.943Z,101880.92
2019-03-12T04:09:37.507Z,101869.25
2019-03-12T04:12:07.048Z,101869.84
2019-03-12T04:14:36.890Z,101869.02
2019-03-12T04:17:06.429Z,101859.16
2019-03-12T04:19:35.895Z,101860.09
2019-03-12T04:22:05.477Z,101848.97
2019-03-12T04:24:35.059Z,101848.07
2019-03-12T04:27:04.989Z,101842.27
2019-03-12T04:29:34.570Z,101832.05
2019-03-12T04:32:04.434Z,101830.28
2019-03-12T04:34:39.490Z,101837.42
2019-03-12T04:37:09.060Z,101830.75
2019-03-12T04:39:38.618Z,101816.95
2019-03-12T04:42:08.179Z,101827.20
2019-03-12T04:44:37.734Z,101826.37
2019-03-12T04:47:07.279Z,101842.47
2019-03-12T04:49:36.818Z,101829.53
2019-03-12T04:52:06.378Z,101836.23
2019-03-12T04:54:35.926Z,101811.75
2019-03-12T04:57:05.472Z,101793.89
2019-03-12T04:59:35.010Z,101777.41
2019-03-12T05:02:04.544Z,101781.90
2019-03-12T05:04:34.109Z,101784.97
2019-03-12T05:07:03.652Z,101776.92
2019-03-12T05:09:33.207Z,101769.36
2019-03-12T05:12:02.750Z,101745.70
2019-03-12T05:14:33.196Z,101733.16
2019-03-12T05:17:05.921Z,101713.91
2019-03-12T05:19:36.235Z,101698.29
2019-03-12T05:22:24.956Z,101689.77
2019-03-12T05:25:12.736Z,101699.03
2019-03-12T05:27:42.638Z,101697.17
2019-03-12T05:30:14.765Z,101682.90
2019-03-12T05:32:44.644Z,101686.53
2019-03-12T05:35:14.189Z,101661.97
2019-03-12T05:37:43.739Z,101651.19
2019-03-12T05:40:30.996Z,101653.35
2019-03-12T05:43:00.545Z,101635.92
2019-03-12T05:45:30.495Z,101631.42
2019-03-12T05:48:00.078Z,101625.53
2019-03-12T05:50:29.603Z,101619.17
2019-03-12T05:53:10.906Z,101612.95
2019-03-12T05:55:40.454Z,101612.86
2019-03-12T05:58:10.157Z,101609.31
2019-03-12T06:00:39.692Z,101603.55
2019-03-12T06:03:27.353Z,101592.83
2019-03-12T06:06:15.257Z,101587.52
2019-03-12T06:08:44.813Z,101583.49
2019-03-12T06:11:14.691Z,101573.71
2019-03-12T06:13:44.226Z,101568.79
2019-03-12T06:16:13.770Z,101563.85
2019-03-12T06:18:43.311Z,101569.21
2019-03-12T06:21:12.838Z,101556.28
2019-03-12T06:23:42.395Z,101556.28
2019-03-12T06:26:12.289Z,101547.76
2019-03-12T06:28:42.093Z,101544.60
2019-03-12T06:31:25.282Z,101536.16
2019-03-12T06:34:01.387Z,101526.78
2019-03-12T06:36:48.579Z,101520.94
2019-03-12T06:39:28.145Z,101516.92
2019-03-12T06:42:02.983Z,101511.94
2019-03-12T06:44:41.087Z,101515.10
2019-03-12T06:47:21.247Z,101492.30
2019-03-12T06:49:56.198Z,101489.62
2019-03-12T06:52:47.555Z,101478.42
2019-03-12T06:55:54.282Z,101466.35
2019-03-12T06:58:41.920Z,101467.22
2019-03-12T07:01:30.188Z,101462.75
2019-03-12T07:04:05.704Z,101444.03
2019-03-12T07:06:56.890Z,101435.98
2019-03-12T07:09:44.279Z,101434.59
2019-03-12T07:12:31.567Z,101426.07
2019-03-12T07:15:32.081Z,101419.37
2019-03-12T07:18:10.625Z,101407.77
2019-03-12T07:20:57.882Z,101392.07
2019-03-12T07:23:42.639Z,101400.12
2019-03-12T07:26:29.613Z,101401.94
2019-03-12T07:29:24.166Z,101393.89
2019-03-12T07:32:13.011Z,101391.20
2019-03-12T07:35:04.146Z,101388.91
2019-03-12T07:37:58.212Z,101380.39
2019-03-12T07:40:47.136Z,101370.56
2019-03-12T07:43:37.513Z,101370.56
2019-03-12T07:46:29.030Z,101373.69
2019-03-12T07:49:17.551Z,101353.58
2019-03-12T07:52:18.105Z,101357.16
2019-03-12T07:55:13.223Z,101344.12
2019-03-12T07:57:52.672Z,101336.09
2019-03-12T08:00:39.565Z,101324.07
2019-03-12T08:03:26.836Z,101321.81
2019-03-12T08:06:09.965Z,101316.45
2019-03-12T08:08:46.091Z,101314.69
2019-03-12T08:11:23.101Z,101316.50
2019-03-12T08:14:01.794Z,101307.12
2019-03-12T08:16:56.153Z,101284.74
2019-03-12T08:19:43.665Z,101278.95
2019-03-12T08:22:30.782Z,101280.72
2019-03-12T08:25:10.990Z,101252.61
2019-03-12T08:27:52.481Z,101254.44
2019-03-12T08:30:33.442Z,101241.50
2019-03-12T08:33:21.984Z,101229.43
2019-03-12T08:36:28.918Z,101232.98
2019-03-12T08:39:02.600Z,101216.41
2019-03-12T08:41:46.530Z,101205.74
2019-03-12T08:44:37.409Z,101201.27
2019-03-12T08:47:22.768Z,101192.33
2019-03-12T08:50:01.777Z,101189.66
2019-03-12T08:52:56.551Z,101178.06
2019-03-12T08:55:43.077Z,101178.06
2019-03-12T08:58:19.717Z,101170.55
2019-03-12T09:01:02.125Z,101165.61
2019-03-12T09:03:40.633Z,101144.16
2019-03-12T09:06:19.463Z,101146.84
2019-03-12T09:08:58.804Z,101135.25
2019-03-12T09:11:39.976Z,101134.77
2019-03-12T09:14:25.412Z,101140.61
2019-03-12T09:17:06.206Z,101135.16
2019-03-12T09:19:45.558Z,101123.09
2019-03-12T09:22:37.527Z,101117.72
2019-03-12T09:25:16.226Z,101089.09
2019-03-12T09:28:09.612Z,101089.03
2019-03-12T09:31:07.457Z,101108.28
2019-03-12T09:34:11.221Z,101080.59
2019-03-12T09:36:57.161Z,101088.64
2019-03-12T09:39:36.338Z,101073.89
2019-03-12T09:42:26.062Z,101070.32
2019-03-12T09:45:11.882Z,101067.25
2019-03-12T09:47:54.315Z,101056.91
2019-03-12T09:50:41.756Z,101043.50
2019-03-12T09:53:26.368Z,101037.28
2019-03-12T09:56:15.193Z,101038.14
2019-03-12T09:59:06.959Z,101017.16
2019-03-12T10:01:45.836Z,101018.50
2019-03-12T10:04:46.247Z,101012.22
2019-03-12T10:07:33.785Z,101001.48
2019-03-12T10:10:27.232Z,101002.35
2019-03-12T10:13:04.904Z,100988.47
2019-03-12T10:16:00.814Z,100970.17
2019-03-12T10:18:44.885Z,100977.26
2019-03-12T10:21:32.093Z,100963.47
2019-03-12T10:24:28.980Z,100962.61
2019-03-12T10:27:11.546Z,100947.86
2019-03-12T10:29:47.004Z,100949.64
2019-03-12T10:32:38.717Z,100946.10
2019-03-12T10:35:21.039Z,100931.77
2019-03-12T10:37:57.176Z,100930.43
2019-03-12T10:41:01.066Z,100933.56
2019-03-12T10:43:41.781Z,100938.06
2019-03-12T10:46:23.043Z,100913.55
2019-03-12T10:48:52.610Z,100910.86
2019-03-12T10:51:40.215Z,100897.45
2019-03-12T10:54:09.800Z,100901.86
2019-03-12T10:56:39.277Z,100888.45
2019-03-12T10:59:09.140Z,100882.61
2019-03-12T11:01:38.703Z,100877.73
2019-03-12T11:04:08.256Z,100871.02
2019-03-12T11:06:37.781Z,100864.80
2019-03-12T11:09:07.569Z,100864.32
2019-03-12T11:11:37.385Z,100864.32
2019-03-12T11:14:07.327Z,100844.20
2019-03-12T11:16:36.932Z,100840.19
2019-03-12T11:19:06.499Z,100830.42
2019-03-12T11:21:36.468Z,100832.55
2019-03-12T11:24:06.050Z,100827.19
2019-03-12T11:26:35.619Z,100815.98
2019-03-12T11:29:05.204Z,100817.80
2019-03-12T11:31:34.827Z,100813.78
2019-03-12T11:34:04.480Z,100803.06
2019-03-12T11:36:34.101Z,100791.92
2019-03-12T11:39:04.801Z,100788.31
2019-03-12T11:41:34.723Z,100765.90
2019-03-12T11:44:04.284Z,100775.28
2019-03-12T11:46:43.528Z,100758.81
2019-03-12T11:49:05.234Z,100777.59
2019-03-12T11:51:35.415Z,100751.16
2019-03-12T11:54:04.986Z,100746.27
2019-03-12T11:56:34.540Z,100731.52
2019-03-12T11:59:04.268Z,100730.18
2019-03-12T12:01:33.816Z,100730.18
2019-03-12T12:04:03.663Z,100729.77
2019-03-12T12:06:33.213Z,100723.48
2019-03-12T12:09:03.136Z,100708.31
2019-03-12T12:11:32.703Z,100702.51
2019-03-12T12:14:02.603Z,100711.89
2019-03-12T12:16:32.162Z,100702.51
2019-03-12T12:19:01.703Z,100689.17
2019-03-12T12:21:31.636Z,100686.49
2019-03-12T12:24:01.489Z,100675.77
2019-03-12T12:26:31.037Z,100667.34
2019-03-12T12:29:00.588Z,100657.86
2019-03-12T12:31:30.444Z,100665.52
2019-03-12T12:33:59.987Z,100651.26
2019-03-12T12:36:29.549Z,100643.66
2019-03-12T12:38:59.106Z,100638.71
2019-03-12T12:41:28.666Z,100631.53
2019-03-12T12:43:58.215Z,100632.01
2019-03-12T12:46:28.080Z,100622.63
2019-03-12T12:48:57.656Z,100605.19
2019-03-12T12:51:27.442Z,100596.30
2019-03-12T12:53:56.974Z,100581.06
2019-03-12T12:56:26.571Z,100573.02
2019-03-12T12:58:56.480Z,100576.08
2019-03-12T13:01:26.058Z,100561.33
2019-03-12T13:03:55.699Z,100541.70
2019-03-12T13:06:25.581Z,100532.80
2019-03-12T13:08:55.126Z,100545.73
2019-03-12T13:11:24.708Z,100531.84
2019-03-12T13:13:54.250Z,100530.50
2019-03-12T13:16:25.472Z,100506.48
2019-03-12T13:18:55.184Z,100499.77
2019-03-12T13:21:24.753Z,100498.44
2019-03-12T13:23:54.302Z,100489.05
2019-03-12T13:26:23.890Z,100464.44
2019-03-12T13:28:53.782Z,100465.37
2019-03-12T13:31:23.348Z,100460.97
2019-03-12T13:33:52.944Z,100455.98
2019-03-12T13:36:22.592Z,100447.01
2019-03-12T13:38:52.475Z,100433.20
2019-03-12T13:41:22.398Z,100434.54
2019-03-12T13:43:52.331Z,100406.39
2019-03-12T13:46:22.207Z,100397.59
2019-03-12T13:48:51.844Z,100389.92
2019-03-12T13:51:21.708Z,100382.85
2019-03-12T13:53:51.254Z,100364.09
2019-03-12T13:56:20.817Z,100372.58
2019-03-12T13:58:50.348Z,100366.28
2019-03-12T14:01:19.935Z,100350.28
2019-03-12T14:03:50.194Z,100337.36
2019-03-12T14:06:19.729Z,100334.19
2019-03-12T14:08:49.599Z,100346.25
2019-03-12T14:11:19.169Z,100324.81
2019-03-12T14:13:48.743Z,100315.91
2019-03-12T14:16:18.301Z,100307.87
2019-03-12T14:18:48.648Z,100309.69
2019-03-12T14:21:18.533Z,100290.44
2019-03-12T14:23:52.695Z,100287.36
2019-03-12T14:26:22.273Z,100290.52
2019-03-12T14:28:52.775Z,100285.16
2019-03-12T14:31:22.502Z,100265.91
2019-03-12T14:33:51.964Z,100257.50
2019-03-12T14:36:21.540Z,100239.11
2019-03-12T14:38:51.077Z,100228.88
2019-03-12T14:41:38.383Z,100225.70
2019-03-12T14:44:10.346Z,100201.20
2019-03-12T14:46:40.009Z,100236.05
2019-03-12T14:49:09.548Z,100214.98
2019-03-12T14:52:02.814Z,100210.59
2019-03-12T14:54:32.365Z,100193.66
2019-03-12T14:57:01.921Z,100188.29
2019-03-12T14:59:31.501Z,100167.22
2019-03-12T15:02:01.128Z,100172.29
2019-03-12T15:04:30.684Z,100160.14
2019-03-12T15:07:00.511Z,100152.67
2019-03-12T15:09:30.093Z,100149.42
2019-03-12T15:11:59.638Z,100124.04
2019-03-12T15:14:29.178Z,100133.34
2019-03-12T15:16:59.089Z,100122.70
2019-03-12T15:19:28.721Z,100117.74
2019-03-12T15:21:58.316Z,100097.52
2019-03-12T15:24:27.913Z,100103.17
2019-03-12T15:26:57.794Z,100079.44
2019-03-12T15:29:27.333Z,100069.94
2019-03-12T15:32:03.984Z,100065.55
2019-03-12T15:34:28.322Z,100056.17
2019-03-12T15:36:57.856Z,100036.06
2019-03-12T15:39:27.403Z,100048.04
2019-03-12T15:42:14.709Z,100036.34
2019-03-12T15:44:44.522Z,100025.62
2019-03-12T15:47:14.107Z,100004.54
2019-03-12T15:49:43.663Z,100001.28
2019-03-12T15:52:13.228Z,99978.98
2019-03-12T15:54:42.901Z,99971.70
2019-03-12T15:57:12.471Z,99949.77
2019-03-12T15:59:42.115Z,99962.69
2019-03-12T16:02:11.720Z,99950.63
2019-03-12T16:04:41.261Z,99945.66
2019-03-12T16:07:10.836Z,99934.33
2019-03-12T16:09:40.404Z,99926.20
2019-03-12T16:12:09.975Z,99925.34
2019-03-12T16:14:39.524Z,99910.02
2019-03-12T16:17:09.113Z,99913.16
2019-03-12T16:19:39.051Z,99896.13
2019-03-12T16:22:08.694Z,99879.91
2019-03-12T16:24:38.234Z,99850.05
2019-03-12T16:27:25.937Z,99858.46
2019-03-12T16:29:55.781Z,99842.77
2019-03-12T16:32:25.335Z,99829.36
2019-03-12T16:34:54.894Z,99820.83
2019-03-12T16:37:26.308Z,99826.19
2019-03-12T16:39:55.852Z,99827.53
2019-03-12T16:42:34.630Z,99815.86
2019-03-12T16:44:56.728Z,99814.80
2019-03-12T16:47:26.646Z,99811.63
2019-03-12T16:49:56.202Z,99777.12
2019-03-12T16:52:25.742Z,99794.46
2019-03-12T16:54:55.282Z,99779.72
2019-03-12T16:57:25.158Z,99763.98
2019-03-12T16:59:55.001Z,99746.55
2019-03-12T17:02:24.569Z,99742.92
2019-03-12T17:04:54.401Z,99751.33
2019-03-12T17:07:23.957Z,99746.33
2019-03-12T17:09:53.512Z,99726.61
2019-03-12T17:12:23.050Z,99724.69
2019-03-12T17:14:53.018Z,99715.66
2019-03-12T17:17:22.553Z,99719.20
2019-03-12T17:19:52.428Z,99712.88
2019-03-12T17:22:22.284Z,99712.39
2019-03-12T17:24:51.835Z,99705.20
2019-03-12T17:27:21.426Z,99706.05
2019-03-12T17:29:50.976Z,99712.75
2019-03-12T17:32:20.516Z,99708.73
2019-03-12T17:34:50.101Z,99699.77
2019-03-12T17:37:19.665Z,99691.23
2019-03-12T17:39:49.235Z,99675.99
2019-03-12T17:42:18.782Z,99677.73
2019-03-12T17:44:48.325Z,99680.77
2019-03-12T17:47:18.338Z,99669.19
2019-03-12T17:49:47.883Z,99677.73
2019-03-12T17:52:17.496Z,99666.51
2019-03-12T17:54:47.344Z,99665.66
2019-03-12T17:57:16.920Z,99653.95
2019-03-12T17:59:46.811Z,99647.24
2019-03-12T18:02:16.358Z,99641.39
2019-03-12T18:04:45.942Z,99647.24
2019-03-12T18:07:15.478Z,99640.44
2019-03-12T18:09:45.026Z,99623.00
2019-03-12T18:12:14.586Z,99644.81
2019-03-12T18:14:44.143Z,99644.33
2019-03-12T18:17:13.693Z,99665.78
2019-03-12T18:19:43.239Z,99658.72
2019-03-12T18:22:12.832Z,99731.63
2019-03-12T18:24:42.667Z,99732.48
2019-03-12T18:27:12.196Z,99762.93
2019-03-12T18:29:41.772Z,99788.41
2019-03-12T18:32:11.306Z,99783.45
2019-03-12T18:34:40.853Z,99822.34
2019-03-12T18:37:10.725Z,99840.26
2019-03-12T18:39:40.266Z,99847.91
2019-03-12T18:42:09.993Z,99849.37
2019-03-12T18:44:39.665Z,99864.98
2019-03-12T18:47:09.154Z,99873.13
2019-03-12T18:49:38.701Z,99878.00
2019-03-12T18:52:08.254Z,99884.25
2019-03-12T18:54:37.808Z,99897.75
2019-03-12T18:57:07.676Z,99901.77
2019-03-12T18:59:37.522Z,99901.77
2019-03-12T19:02:07.075Z,99908.54
2019-03-12T19:04:36.620Z,99913.91
2019-03-12T19:07:06.362Z,99923.29
2019-03-12T19:09:35.920Z,99927.31
2019-03-12T19:12:05.752Z,99923.29
2019-03-12T19:14:35.559Z,99941.58
2019-03-12T19:17:05.447Z,99948.63
2019-03-12T19:19:35.005Z,99952.16
2019-03-12T19:22:04.552Z,99961.42
2019-03-12T19:24:34.105Z,99984.98
2019-03-12T19:27:04.328Z,99981.94
2019-03-12T19:29:34.241Z,99978.28
2019-03-12T19:32:16.870Z,100001.56
2019-03-12T19:34:46.748Z,100010.95
2019-03-12T19:37:16.391Z,100006.08
2019-03-12T19:39:45.950Z,100016.90
2019-03-12T19:42:15.499Z,100036.07
2019-03-12T19:44:45.065Z,100024.95
2019-03-12T19:47:14.983Z,100020.06
2019-03-12T19:49:44.536Z,100036.53
2019-03-12T19:52:14.081Z,100033.84
2019-03-12T19:54:45.372Z,100041.04
2019-03-12T19:57:15.496Z,100028.97
2019-03-12T19:59:45.074Z,100045.06
2019-03-12T20:02:16.387Z,100052.75
2019-03-12T20:04:47.479Z,100062.01
2019-03-12T20:07:17.184Z,100068.72
2019-03-12T20:10:12.279Z,100073.14
2019-03-12T20:13:20.645Z,100067.86
2019-03-12T20:16:36.848Z,100072.74
2019-03-12T20:19:43.106Z,100069.69
2019-03-12T20:23:05.115Z,100074.20
2019-03-12T20:26:02.906Z,100091.64
2019-03-12T20:29:23.054Z,100094.05
2019-03-12T20:32:17.938Z,100106.11
2019-03-12T20:35:39.435Z,100100.26
2019-03-12T20:38:41.478Z,100099.77
2019-03-12T20:41:50.987Z,100104.65
2019-03-12T20:44:50.801Z,100122.09
2019-03-12T20:47:41.573Z,100117.70
2019-03-12T20:51:04.294Z,100124.40
2019-03-12T20:54:10.084Z,100131.95
2019-03-12T20:57:11.224Z,100149.39
2019-03-12T21:00:26.722Z,100152.56
2019-03-12T21:03:49.891Z,100163.78
2019-03-12T21:07:02.631Z,100166.26
2019-03-12T21:10:09.418Z,100164.55
2019-03-12T21:13:15.113Z,100169.91
2019-03-12T21:16:33.496Z,100167.69
2019-03-12T21:19:50.416Z,100152.94
2019-03-12T21:22:52.762Z,100153.42
2019-03-12T21:26:11.723Z,100161.87
2019-03-12T21:28:56.971Z,100165.48
2019-03-12T21:31:26.570Z,100163.20
2019-03-12T21:33:56.147Z,100164.15
2019-03-12T21:36:25.984Z,100163.20
2019-03-12T21:38:55.559Z,100165.41
2019-03-12T21:41:25.114Z,100161.75
2019-03-12T21:43:54.680Z,100179.67
2019-03-12T21:46:24.832Z,100173.33
2019-03-12T21:48:54.670Z,100166.63
2019-03-12T21:51:24.568Z,100163.95
2019-03-12T21:53:54.123Z,100167.52
2019-03-12T21:56:24.003Z,100168.37
2019-03-12T21:58:53.496Z,100159.47
2019-03-12T22:01:23.053Z,100172.39
2019-03-12T22:03:52.848Z,100181.78
2019-03-12T22:06:22.400Z,100193.86
2019-03-12T22:08:51.948Z,100191.66
2019-03-12T22:11:21.489Z,100191.66
2019-03-12T22:13:51.030Z,100193.86
2019-03-12T22:16:20.873Z,100198.36
2019-03-12T22:18:51.912Z,100198.81
2019-03-12T22:21:27.077Z,100198.81
2019-03-12T22:23:58.289Z,100203.33
2019-03-12T22:26:27.860Z,100203.33
2019-03-12T22:28:57.731Z,100196.63
2019-03-12T22:31:27.273Z,100203.81
2019-03-12T22:33:57.092Z,100196.73
2019-03-12T22:36:26.641Z,100189.14
2019-03-12T22:38:56.559Z,100200.77
2019-03-12T22:41:26.362Z,100197.68
2019-03-12T22:43:55.929Z,100192.80
2019-03-12T22:46:25.498Z,100196.34
2019-03-12T22:48:55.033Z,100183.90
2019-03-12T22:51:24.578Z,100201.33
2019-03-12T22:53:54.130Z,100201.33
2019-03-12T22:56:23.687Z,100206.70
2019-03-12T22:58:53.226Z,100191.52
2019-03-12T23:01:22.761Z,100183.95
2019-03-12T23:03:52.330Z,100192.48
2019-03-12T23:06:21.870Z,100202.36
2019-03-12T23:08:51.430Z,100195.66
2019-03-12T23:11:20.967Z,100210.28
2019-03-12T23:13:50.510Z,100204.16
2019-03-12T23:16:20.071Z,100200.61
2019-03-12T23:18:49.614Z,100186.72
2019-03-12T23:21:19.183Z,100189.40
2019-03-12T23:23:48.729Z,100185.38
2019-03-12T23:26:18.291Z,100197.08
2019-03-12T23:28:47.833Z,100193.42
2019-03-12T23:31:17.393Z,100192.56
2019-03-12T23:33:46.955Z,100187.20
2019-03-12T23:36:16.523Z,100180.50
2019-03-12T23:38:46.077Z,100187.78
2019-03-12T23:41:15.609Z,100191.80
2019-03-12T23:43:45.142Z,100177.05
2019-03-12T23:46:15.066Z,100188.66
2019-03-12T23:48:44.609Z,100185.58
2019-03-12T23:51:14.180Z,100187.04
2019-03-12T23:53:43.734Z,100195.09
2019-03-12T23:56:13.272Z,100214.23
2019-03-12T23:58:42.839Z,100195.17
